Adrian, Missouri
Current Conditions -  °F | °C
As of 12:35 PM on Sunday 25 Jan 2015 (Local Time) from KGLY Reporting Station
Overcast Overcast  
Wind Chill: -1°   Ceiling: 1700
Heat Index:   Visibility: 10mi
Dew Point:   Wind: 20mph
Humidity: 87%   Direction: 320°NW
Pressure: 29.77"   Gusts: 28mph
Location:  38.4°N, 94.35°W
Report Text: KGLY 251835Z AUTO 32017G24KT 10SM OVC017 04/02 A2977 RMK AO2
Loading
Personal Weather Stations






























Interactive Weather Map New forecast layout! Learn more

10-Day Weather Forecast

Advertisements
Track Severe Weather on mobile